Historyczne dane pomiarowe

Dodano dane terminowe – wersja testowa.

Dane z okresu 1951-2019

Wersja bazy: 1.34 [2019-03-16, lista zmian], aktualizacja planowana na 2019-04-15

Dane meteo z obszaru Polski uzyskane na podstawie danych udostępnionych przez Instytut Meteorologii i Gospodarki Wodnej – Państwowy Instytut Badawczy.

 

Wybierz Datę:    

       

TemperaturaWilgotnośćWiatrCiśnienieOpadyŚniegCzas trwania zjawisk
 Stacja t tx tn tng RH VA  wxwx mslp ppp RRR   cm mm wxwxwxwxwxwxwx
1952-02-26 -2.2 -0.4 -6.2- 87.3- 7.3 1.7---- 0.9-- 18---------
1952-02-27 -6.6 -1.0 -9.6- 79.5- 7.7 3.3---- 0.0-- 19---------
1952-02-28-11.6 -6.7-15.6- 79.8- 5.7 0.7---- 0.0-- 19---------
1952-02-29 -7.8 -5.7-18.8- 74.5- 8.0 2.3---- 0.5-- 17---------
1952-03-01 -4.7 0.6 -8.7- 84.3- 8.0 10.0---- 5.5-- 19---------
1952-03-02 -4.6 -1.8 -8.6- 76.5- 5.0 7.7---- 0.4-- 25---------
1952-03-03 -4.9 0.4-10.4- 79.5- 6.7 1.7---- 0.0-- 25---------
1952-03-04-10.4 -4.9-19.2- 84.5-- 3.0---- 2.1-- 22---------
1952-03-05 -4.9 -2.6 -9.5- 82.5- 7.7 6.0---- 0.8-- 23---------
1952-03-06 -7.7 -4.7-12.2- 68.3- 6.7 8.0---- 0.0-- 23---------
1952-03-07 -7.0 -4.1-10.5- 60.0- 6.0 8.0---- 0.0-- 23---------
1952-03-08 -8.2 0.4-16.6- 70.0-- 0.3---- 0.0-- 22---------
1952-03-09 -8.8 -0.8-20.7- 69.8-- 0.7---- 0.0-- 21---------
1952-03-10 -6.9 3.3-17.8- 75.0-- 1.0---- 0.0-- 19---------
1952-03-11 -3.5 5.2-15.5- 73.5-- 1.7---- 0.0-- 18---------
1952-03-12 0.0 2.1 -6.5- 91.8- 7.7 3.0---- 3.4-- 18---------
1952-03-13 -0.2 1.5 -2.3- 94.0- 8.0 5.0---- 2.7-- 18---------
1952-03-14 -9.0 -1.0-12.8- 79.3-- 3.7---- 0.3-- 21---------
1952-03-15 -3.5 0.7-18.5- 81.0- 7.7 4.7---- 0.0-- 20---------
1952-03-16 0.7 3.6 -1.9- 70.8-- 5.0---- 0.0-- 20---------
1952-03-17 -1.1 2.3 -4.2- 74.0-- 4.7---- 0.0-- 19---------
1952-03-18 -8.7 -2.8-11.4- 62.5-- 3.3---- 0.0-- 11---------
1952-03-19 -8.3 -3.1-14.5- 71.8-- 5.3---- 0.1-- 11---------
1952-03-20 -7.2 -3.9-14.9- 79.3- 6.0 6.7---- 0.4-- 11---------
1952-03-21 -9.1 -4.6-12.4- 77.8-- 2.3---- 0.0-- 11---------
1952-03-22-12.2 -6.0-19.4- 77.5-- 1.3---- 0.0-- 11---------
1952-03-23 -9.0 -5.1-14.6- 72.0-- 2.7---- 0.0-- 10---------
1952-03-24 -3.0 -0.1-15.2- 88.5- 7.3 4.0---- 0.6-- 9---------
1952-03-25 -6.6 -0.1-10.6- 75.8-- 3.3---- 0.0-- 10---------
1952-03-26 -9.9 -6.7-12.6- 74.8-- 1.7---- 0.0-- 10---------
103.3 ms

 

Źródłem pochodzenia danych jest Instytut Meteorologii i Gospodarki Wodnej – Państwowy Instytut Badawczy. Dane Instytutu Meteorologii i Gospodarki Wodnej – Państwowego Instytutu Badawczego zostały przetworzone.

Dane źródłowe można odnaleźć na stronie https://dane.imgw.pl